sensor_id;sensor_type;location;lat;lon;timestamp;P1;durP1;ratioP1;P2;durP2;ratioP2
52104;SDS011;38103;42.776;23.112;2022-07-15T00:01:08;6.47;;;2.20;;
52104;SDS011;38103;42.776;23.112;2022-07-15T00:03:34;6.40;;;2.35;;
52104;SDS011;38103;42.776;23.112;2022-07-15T00:06:02;7.97;;;2.70;;
52104;SDS011;38103;42.776;23.112;2022-07-15T00:08:28;6.47;;;2.13;;
52104;SDS011;38103;42.776;23.112;2022-07-15T00:10:54;6.25;;;2.35;;
52104;SDS011;38103;42.776;23.112;2022-07-15T00:13:20;5.88;;;2.38;;
52104;SDS011;38103;42.776;23.112;2022-07-15T00:15:46;7.28;;;2.40;;
52104;SDS011;38103;42.776;23.112;2022-07-15T00:18:11;6.82;;;2.40;;
52104;SDS011;38103;42.776;23.112;2022-07-15T00:20:37;5.78;;;2.20;;
52104;SDS011;38103;42.776;23.112;2022-07-15T00:23:04;8.85;;;2.42;;
52104;SDS011;38103;42.776;23.112;2022-07-15T00:25:32;5.63;;;2.22;;
52104;SDS011;38103;42.776;23.112;2022-07-15T00:27:58;6.10;;;2.40;;
52104;SDS011;38103;42.776;23.112;2022-07-15T00:30:36;7.70;;;2.40;;
52104;SDS011;38103;42.776;23.112;2022-07-15T00:33:03;5.88;;;2.20;;
52104;SDS011;38103;42.776;23.112;2022-07-15T00:35:30;6.80;;;2.47;;
52104;SDS011;38103;42.776;23.112;2022-07-15T00:37:56;6.95;;;2.42;;
52104;SDS011;38103;42.776;23.112;2022-07-15T00:40:22;5.97;;;2.35;;
52104;SDS011;38103;42.776;23.112;2022-07-15T00:42:48;6.00;;;2.30;;
52104;SDS011;38103;42.776;23.112;2022-07-15T00:45:15;7.32;;;2.47;;
52104;SDS011;38103;42.776;23.112;2022-07-15T00:47:46;7.50;;;2.47;;
52104;SDS011;38103;42.776;23.112;2022-07-15T00:50:13;6.38;;;2.30;;
52104;SDS011;38103;42.776;23.112;2022-07-15T00:52:40;7.65;;;2.50;;
52104;SDS011;38103;42.776;23.112;2022-07-15T00:55:11;10.48;;;2.67;;
52104;SDS011;38103;42.776;23.112;2022-07-15T00:57:44;6.55;;;2.50;;
52104;SDS011;38103;42.776;23.112;2022-07-15T01:00:11;6.32;;;2.40;;
52104;SDS011;38103;42.776;23.112;2022-07-15T01:02:38;8.15;;;2.47;;
52104;SDS011;38103;42.776;23.112;2022-07-15T01:05:05;10.40;;;2.35;;
52104;SDS011;38103;42.776;23.112;2022-07-15T01:07:34;6.10;;;2.42;;
52104;SDS011;38103;42.776;23.112;2022-07-15T01:10:00;7.30;;;2.30;;
52104;SDS011;38103;42.776;23.112;2022-07-15T01:12:26;9.75;;;2.50;;
52104;SDS011;38103;42.776;23.112;2022-07-15T01:14:52;6.70;;;2.40;;
52104;SDS011;38103;42.776;23.112;2022-07-15T01:17:18;10.57;;;2.80;;
52104;SDS011;38103;42.776;23.112;2022-07-15T01:19:43;6.88;;;2.42;;
52104;SDS011;38103;42.776;23.112;2022-07-15T01:22:08;7.10;;;2.35;;
52104;SDS011;38103;42.776;23.112;2022-07-15T01:24:34;6.68;;;2.40;;
52104;SDS011;38103;42.776;23.112;2022-07-15T01:27:00;11.40;;;2.50;;
52104;SDS011;38103;42.776;23.112;2022-07-15T01:29:26;7.97;;;2.88;;
52104;SDS011;38103;42.776;23.112;2022-07-15T01:31:52;8.27;;;2.70;;
52104;SDS011;38103;42.776;23.112;2022-07-15T01:34:18;6.97;;;2.65;;
52104;SDS011;38103;42.776;23.112;2022-07-15T01:36:44;9.57;;;2.60;;
52104;SDS011;38103;42.776;23.112;2022-07-15T01:39:10;6.80;;;2.40;;
52104;SDS011;38103;42.776;23.112;2022-07-15T01:41:35;7.43;;;2.63;;
52104;SDS011;38103;42.776;23.112;2022-07-15T01:44:00;7.82;;;2.70;;
52104;SDS011;38103;42.776;23.112;2022-07-15T01:46:26;7.63;;;2.55;;
52104;SDS011;38103;42.776;23.112;2022-07-15T01:48:51;7.82;;;2.67;;
52104;SDS011;38103;42.776;23.112;2022-07-15T01:51:53;10.93;;;2.60;;
52104;SDS011;38103;42.776;23.112;2022-07-15T01:54:20;8.32;;;2.67;;
52104;SDS011;38103;42.776;23.112;2022-07-15T01:56:46;7.90;;;2.40;;
52104;SDS011;38103;42.776;23.112;2022-07-15T01:59:12;9.38;;;2.60;;
52104;SDS011;38103;42.776;23.112;2022-07-15T02:01:38;8.07;;;2.53;;
52104;SDS011;38103;42.776;23.112;2022-07-15T02:04:03;7.47;;;2.50;;
52104;SDS011;38103;42.776;23.112;2022-07-15T02:06:29;12.55;;;2.90;;
52104;SDS011;38103;42.776;23.112;2022-07-15T02:08:54;11.55;;;2.65;;
52104;SDS011;38103;42.776;23.112;2022-07-15T02:11:20;7.75;;;2.65;;
52104;SDS011;38103;42.776;23.112;2022-07-15T02:13:45;7.28;;;2.70;;
52104;SDS011;38103;42.776;23.112;2022-07-15T02:16:10;6.97;;;2.53;;
52104;SDS011;38103;42.776;23.112;2022-07-15T02:18:36;7.35;;;2.60;;
52104;SDS011;38103;42.776;23.112;2022-07-15T02:21:01;9.10;;;2.80;;
52104;SDS011;38103;42.776;23.112;2022-07-15T02:23:27;7.82;;;2.53;;
52104;SDS011;38103;42.776;23.112;2022-07-15T02:25:53;7.25;;;2.60;;
52104;SDS011;38103;42.776;23.112;2022-07-15T02:28:19;6.32;;;2.20;;
52104;SDS011;38103;42.776;23.112;2022-07-15T02:30:44;10.02;;;2.88;;
52104;SDS011;38103;42.776;23.112;2022-07-15T02:33:10;7.22;;;2.40;;
52104;SDS011;38103;42.776;23.112;2022-07-15T02:35:36;6.90;;;2.50;;
52104;SDS011;38103;42.776;23.112;2022-07-15T02:38:02;7.18;;;2.53;;
52104;SDS011;38103;42.776;23.112;2022-07-15T02:40:28;9.32;;;2.85;;
52104;SDS011;38103;42.776;23.112;2022-07-15T02:42:56;7.75;;;2.72;;
52104;SDS011;38103;42.776;23.112;2022-07-15T02:45:25;9.10;;;2.78;;
52104;SDS011;38103;42.776;23.112;2022-07-15T02:47:52;8.27;;;2.60;;
52104;SDS011;38103;42.776;23.112;2022-07-15T02:50:18;7.90;;;2.50;;
52104;SDS011;38103;42.776;23.112;2022-07-15T02:52:45;10.10;;;2.85;;
52104;SDS011;38103;42.776;23.112;2022-07-15T02:55:11;8.00;;;2.70;;
52104;SDS011;38103;42.776;23.112;2022-07-15T02:57:38;6.65;;;2.63;;
52104;SDS011;38103;42.776;23.112;2022-07-15T03:00:04;7.50;;;2.63;;
52104;SDS011;38103;42.776;23.112;2022-07-15T03:02:32;7.45;;;2.72;;
52104;SDS011;38103;42.776;23.112;2022-07-15T03:04:57;8.02;;;2.55;;
52104;SDS011;38103;42.776;23.112;2022-07-15T03:07:23;7.25;;;2.80;;
52104;SDS011;38103;42.776;23.112;2022-07-15T03:09:48;10.38;;;3.25;;
52104;SDS011;38103;42.776;23.112;2022-07-15T03:12:14;6.97;;;2.72;;
52104;SDS011;38103;42.776;23.112;2022-07-15T03:14:40;11.43;;;2.80;;
52104;SDS011;38103;42.776;23.112;2022-07-15T03:17:06;7.75;;;2.67;;
52104;SDS011;38103;42.776;23.112;2022-07-15T03:19:33;8.45;;;3.03;;
52104;SDS011;38103;42.776;23.112;2022-07-15T03:21:58;7.93;;;3.10;;
52104;SDS011;38103;42.776;23.112;2022-07-15T03:24:24;9.98;;;3.45;;
52104;SDS011;38103;42.776;23.112;2022-07-15T03:26:49;10.07;;;3.17;;
52104;SDS011;38103;42.776;23.112;2022-07-15T03:29:15;7.55;;;2.75;;
52104;SDS011;38103;42.776;23.112;2022-07-15T03:31:41;7.30;;;2.70;;
52104;SDS011;38103;42.776;23.112;2022-07-15T03:34:07;8.63;;;3.13;;
52104;SDS011;38103;42.776;23.112;2022-07-15T03:36:34;9.70;;;2.83;;
52104;SDS011;38103;42.776;23.112;2022-07-15T03:39:00;7.55;;;3.10;;
52104;SDS011;38103;42.776;23.112;2022-07-15T03:41:26;7.25;;;2.70;;
52104;SDS011;38103;42.776;23.112;2022-07-15T03:43:51;7.25;;;2.65;;
52104;SDS011;38103;42.776;23.112;2022-07-15T03:46:16;8.05;;;2.80;;
52104;SDS011;38103;42.776;23.112;2022-07-15T03:48:42;7.63;;;2.58;;
52104;SDS011;38103;42.776;23.112;2022-07-15T03:51:07;8.95;;;2.78;;
52104;SDS011;38103;42.776;23.112;2022-07-15T03:53:33;8.30;;;2.53;;
52104;SDS011;38103;42.776;23.112;2022-07-15T03:55:58;9.13;;;3.00;;
52104;SDS011;38103;42.776;23.112;2022-07-15T03:58:24;11.10;;;2.92;;
52104;SDS011;38103;42.776;23.112;2022-07-15T04:00:49;8.27;;;2.75;;
52104;SDS011;38103;42.776;23.112;2022-07-15T04:03:15;6.80;;;2.50;;
52104;SDS011;38103;42.776;23.112;2022-07-15T04:05:41;7.65;;;2.45;;
52104;SDS011;38103;42.776;23.112;2022-07-15T04:08:07;6.90;;;2.67;;
52104;SDS011;38103;42.776;23.112;2022-07-15T04:10:32;7.15;;;2.70;;
52104;SDS011;38103;42.776;23.112;2022-07-15T04:12:58;9.65;;;2.50;;
52104;SDS011;38103;42.776;23.112;2022-07-15T04:15:23;9.38;;;2.47;;
52104;SDS011;38103;42.776;23.112;2022-07-15T04:17:49;9.35;;;2.55;;
52104;SDS011;38103;42.776;23.112;2022-07-15T04:20:14;11.48;;;3.25;;
52104;SDS011;38103;42.776;23.112;2022-07-15T04:22:43;8.02;;;2.60;;
52104;SDS011;38103;42.776;23.112;2022-07-15T04:25:13;8.45;;;2.80;;
52104;SDS011;38103;42.776;23.112;2022-07-15T04:27:40;6.65;;;2.60;;
52104;SDS011;38103;42.776;23.112;2022-07-15T04:30:06;9.02;;;2.58;;
52104;SDS011;38103;42.776;23.112;2022-07-15T04:32:32;8.35;;;2.85;;
52104;SDS011;38103;42.776;23.112;2022-07-15T04:34:57;9.18;;;2.53;;
52104;SDS011;38103;42.776;23.112;2022-07-15T04:37:23;10.15;;;2.80;;
52104;SDS011;38103;42.776;23.112;2022-07-15T04:39:48;8.05;;;2.65;;
52104;SDS011;38103;42.776;23.112;2022-07-15T04:42:14;7.32;;;2.67;;
52104;SDS011;38103;42.776;23.112;2022-07-15T04:44:39;8.40;;;2.88;;
52104;SDS011;38103;42.776;23.112;2022-07-15T04:47:05;9.55;;;2.60;;
52104;SDS011;38103;42.776;23.112;2022-07-15T04:49:30;9.43;;;2.72;;
52104;SDS011;38103;42.776;23.112;2022-07-15T04:52:14;8.80;;;2.90;;
52104;SDS011;38103;42.776;23.112;2022-07-15T04:54:40;8.00;;;2.70;;
52104;SDS011;38103;42.776;23.112;2022-07-15T04:57:05;7.57;;;2.58;;
52104;SDS011;38103;42.776;23.112;2022-07-15T04:59:31;8.75;;;2.63;;
52104;SDS011;38103;42.776;23.112;2022-07-15T05:01:58;8.50;;;2.65;;
52104;SDS011;38103;42.776;23.112;2022-07-15T05:04:25;9.60;;;3.03;;
52104;SDS011;38103;42.776;23.112;2022-07-15T05:06:51;12.35;;;2.80;;
52104;SDS011;38103;42.776;23.112;2022-07-15T05:09:17;8.45;;;2.85;;
52104;SDS011;38103;42.776;23.112;2022-07-15T05:11:42;9.90;;;2.55;;
52104;SDS011;38103;42.776;23.112;2022-07-15T05:14:08;10.25;;;2.78;;
52104;SDS011;38103;42.776;23.112;2022-07-15T05:16:33;7.90;;;2.50;;
52104;SDS011;38103;42.776;23.112;2022-07-15T05:18:58;8.32;;;2.50;;
52104;SDS011;38103;42.776;23.112;2022-07-15T05:21:24;9.45;;;2.80;;
52104;SDS011;38103;42.776;23.112;2022-07-15T05:23:49;8.70;;;2.72;;
52104;SDS011;38103;42.776;23.112;2022-07-15T05:26:15;9.75;;;2.80;;
52104;SDS011;38103;42.776;23.112;2022-07-15T05:28:40;9.43;;;3.13;;
52104;SDS011;38103;42.776;23.112;2022-07-15T05:31:06;7.40;;;2.60;;
52104;SDS011;38103;42.776;23.112;2022-07-15T05:33:32;10.32;;;3.30;;
52104;SDS011;38103;42.776;23.112;2022-07-15T05:35:58;11.20;;;3.13;;
52104;SDS011;38103;42.776;23.112;2022-07-15T05:38:24;11.52;;;3.58;;
52104;SDS011;38103;42.776;23.112;2022-07-15T05:40:50;13.50;;;3.25;;
52104;SDS011;38103;42.776;23.112;2022-07-15T05:43:15;9.57;;;2.97;;
52104;SDS011;38103;42.776;23.112;2022-07-15T05:45:41;8.27;;;2.92;;
52104;SDS011;38103;42.776;23.112;2022-07-15T05:48:06;10.07;;;3.25;;
52104;SDS011;38103;42.776;23.112;2022-07-15T05:50:32;7.85;;;2.92;;
52104;SDS011;38103;42.776;23.112;2022-07-15T05:52:58;9.35;;;2.95;;
52104;SDS011;38103;42.776;23.112;2022-07-15T05:55:24;10.45;;;3.22;;
52104;SDS011;38103;42.776;23.112;2022-07-15T05:57:49;7.90;;;2.80;;
52104;SDS011;38103;42.776;23.112;2022-07-15T06:00:15;8.55;;;3.10;;
52104;SDS011;38103;42.776;23.112;2022-07-15T06:02:41;15.88;;;3.55;;
52104;SDS011;38103;42.776;23.112;2022-07-15T06:05:07;12.68;;;3.03;;
52104;SDS011;38103;42.776;23.112;2022-07-15T06:07:36;11.13;;;3.08;;
52104;SDS011;38103;42.776;23.112;2022-07-15T06:10:02;8.55;;;3.10;;
52104;SDS011;38103;42.776;23.112;2022-07-15T06:12:29;12.73;;;3.20;;
52104;SDS011;38103;42.776;23.112;2022-07-15T06:14:54;10.98;;;3.15;;
52104;SDS011;38103;42.776;23.112;2022-07-15T06:17:20;9.65;;;3.00;;
52104;SDS011;38103;42.776;23.112;2022-07-15T06:19:45;7.93;;;2.78;;
52104;SDS011;38103;42.776;23.112;2022-07-15T06:22:11;8.98;;;3.20;;
52104;SDS011;38103;42.776;23.112;2022-07-15T06:24:36;11.98;;;2.90;;
52104;SDS011;38103;42.776;23.112;2022-07-15T06:27:02;8.18;;;2.75;;
52104;SDS011;38103;42.776;23.112;2022-07-15T06:29:27;9.93;;;2.65;;
52104;SDS011;38103;42.776;23.112;2022-07-15T06:31:52;9.20;;;2.83;;
52104;SDS011;38103;42.776;23.112;2022-07-15T06:34:18;9.05;;;2.90;;
52104;SDS011;38103;42.776;23.112;2022-07-15T06:36:43;11.27;;;2.90;;
52104;SDS011;38103;42.776;23.112;2022-07-15T06:39:08;8.55;;;3.20;;
52104;SDS011;38103;42.776;23.112;2022-07-15T06:41:34;10.98;;;2.83;;
52104;SDS011;38103;42.776;23.112;2022-07-15T06:44:00;10.63;;;3.03;;
52104;SDS011;38103;42.776;23.112;2022-07-15T06:46:26;10.10;;;2.90;;
52104;SDS011;38103;42.776;23.112;2022-07-15T06:48:52;10.30;;;3.20;;
52104;SDS011;38103;42.776;23.112;2022-07-15T06:51:18;12.35;;;2.70;;
52104;SDS011;38103;42.776;23.112;2022-07-15T06:53:43;12.15;;;2.92;;
52104;SDS011;38103;42.776;23.112;2022-07-15T06:56:09;10.23;;;3.03;;
52104;SDS011;38103;42.776;23.112;2022-07-15T06:58:34;8.00;;;2.90;;
52104;SDS011;38103;42.776;23.112;2022-07-15T07:01:00;7.88;;;2.70;;
52104;SDS011;38103;42.776;23.112;2022-07-15T07:03:26;8.95;;;2.75;;
52104;SDS011;38103;42.776;23.112;2022-07-15T07:05:51;9.05;;;2.83;;
52104;SDS011;38103;42.776;23.112;2022-07-15T07:08:17;8.57;;;2.92;;
52104;SDS011;38103;42.776;23.112;2022-07-15T07:10:42;8.18;;;2.47;;
52104;SDS011;38103;42.776;23.112;2022-07-15T07:13:08;7.57;;;2.47;;
52104;SDS011;38103;42.776;23.112;2022-07-15T07:15:34;7.85;;;2.95;;
52104;SDS011;38103;42.776;23.112;2022-07-15T07:18:00;10.07;;;2.58;;
52104;SDS011;38103;42.776;23.112;2022-07-15T07:20:25;8.07;;;2.92;;
52104;SDS011;38103;42.776;23.112;2022-07-15T07:22:51;7.93;;;2.45;;
52104;SDS011;38103;42.776;23.112;2022-07-15T07:25:16;7.93;;;2.45;;
52104;SDS011;38103;42.776;23.112;2022-07-15T07:27:42;7.82;;;2.45;;
52104;SDS011;38103;42.776;23.112;2022-07-15T07:30:07;8.98;;;2.50;;
52104;SDS011;38103;42.776;23.112;2022-07-15T07:32:33;11.18;;;2.58;;
52104;SDS011;38103;42.776;23.112;2022-07-15T07:34:59;6.93;;;2.45;;
52104;SDS011;38103;42.776;23.112;2022-07-15T07:37:24;10.93;;;2.70;;
52104;SDS011;38103;42.776;23.112;2022-07-15T07:39:51;10.05;;;2.80;;
52104;SDS011;38103;42.776;23.112;2022-07-15T07:42:17;7.85;;;2.50;;
52104;SDS011;38103;42.776;23.112;2022-07-15T07:44:43;7.20;;;2.53;;
52104;SDS011;38103;42.776;23.112;2022-07-15T07:47:08;10.27;;;2.70;;
52104;SDS011;38103;42.776;23.112;2022-07-15T07:49:33;8.20;;;2.50;;
52104;SDS011;38103;42.776;23.112;2022-07-15T07:51:59;6.57;;;2.42;;
52104;SDS011;38103;42.776;23.112;2022-07-15T07:54:24;7.75;;;2.30;;
52104;SDS011;38103;42.776;23.112;2022-07-15T07:56:50;7.10;;;2.30;;
52104;SDS011;38103;42.776;23.112;2022-07-15T07:59:15;9.70;;;2.65;;
52104;SDS011;38103;42.776;23.112;2022-07-15T08:01:41;8.77;;;2.80;;
52104;SDS011;38103;42.776;23.112;2022-07-15T08:04:06;9.32;;;2.38;;
52104;SDS011;38103;42.776;23.112;2022-07-15T08:18:23;7.95;;;2.40;;
52104;SDS011;38103;42.776;23.112;2022-07-15T08:20:49;8.70;;;2.40;;
52104;SDS011;38103;42.776;23.112;2022-07-15T08:23:14;9.10;;;3.05;;
52104;SDS011;38103;42.776;23.112;2022-07-15T08:25:45;8.65;;;2.40;;
52104;SDS011;38103;42.776;23.112;2022-07-15T08:28:10;7.03;;;2.20;;
52104;SDS011;38103;42.776;23.112;2022-07-15T08:30:36;7.68;;;2.40;;
52104;SDS011;38103;42.776;23.112;2022-07-15T08:33:01;6.80;;;2.15;;
52104;SDS011;38103;42.776;23.112;2022-07-15T08:35:27;8.68;;;2.22;;
52104;SDS011;38103;42.776;23.112;2022-07-15T08:37:53;11.25;;;2.65;;
52104;SDS011;38103;42.776;23.112;2022-07-15T08:40:19;7.15;;;2.42;;
52104;SDS011;38103;42.776;23.112;2022-07-15T08:42:45;7.22;;;2.25;;
52104;SDS011;38103;42.776;23.112;2022-07-15T08:45:12;5.32;;;2.13;;
52104;SDS011;38103;42.776;23.112;2022-07-15T08:47:40;8.23;;;2.47;;
52104;SDS011;38103;42.776;23.112;2022-07-15T08:50:10;5.07;;;1.98;;
52104;SDS011;38103;42.776;23.112;2022-07-15T08:52:38;8.18;;;2.17;;
52104;SDS011;38103;42.776;23.112;2022-07-15T08:55:04;9.48;;;2.30;;
52104;SDS011;38103;42.776;23.112;2022-07-15T08:57:31;6.05;;;2.22;;
52104;SDS011;38103;42.776;23.112;2022-07-15T08:59:56;8.73;;;2.58;;
52104;SDS011;38103;42.776;23.112;2022-07-15T09:02:22;6.55;;;2.20;;
52104;SDS011;38103;42.776;23.112;2022-07-15T09:10:23;8.00;;;2.45;;
52104;SDS011;38103;42.776;23.112;2022-07-15T09:12:51;8.45;;;2.10;;
52104;SDS011;38103;42.776;23.112;2022-07-15T09:15:31;6.07;;;2.17;;
52104;SDS011;38103;42.776;23.112;2022-07-15T09:18:13;5.43;;;2.05;;
52104;SDS011;38103;42.776;23.112;2022-07-15T09:20:41;9.30;;;2.53;;
52104;SDS011;38103;42.776;23.112;2022-07-15T09:23:08;10.57;;;2.38;;
52104;SDS011;38103;42.776;23.112;2022-07-15T09:25:35;6.78;;;2.20;;
52104;SDS011;38103;42.776;23.112;2022-07-15T09:28:06;9.48;;;2.10;;
52104;SDS011;38103;42.776;23.112;2022-07-15T09:30:34;5.70;;;2.08;;
52104;SDS011;38103;42.776;23.112;2022-07-15T09:33:21;6.80;;;2.10;;
52104;SDS011;38103;42.776;23.112;2022-07-15T09:36:01;5.63;;;1.80;;
52104;SDS011;38103;42.776;23.112;2022-07-15T09:38:29;4.18;;;1.70;;
52104;SDS011;38103;42.776;23.112;2022-07-15T09:40:56;8.82;;;2.13;;
52104;SDS011;38103;42.776;23.112;2022-07-15T09:43:21;6.53;;;2.10;;
52104;SDS011;38103;42.776;23.112;2022-07-15T09:45:48;5.95;;;1.90;;
52104;SDS011;38103;42.776;23.112;2022-07-15T09:48:21;6.80;;;2.10;;
52104;SDS011;38103;42.776;23.112;2022-07-15T09:50:47;6.38;;;1.98;;
52104;SDS011;38103;42.776;23.112;2022-07-15T09:53:14;5.47;;;2.05;;
52104;SDS011;38103;42.776;23.112;2022-07-15T09:55:40;8.18;;;2.00;;
52104;SDS011;38103;42.776;23.112;2022-07-15T09:58:05;5.45;;;2.10;;
52104;SDS011;38103;42.776;23.112;2022-07-15T10:00:33;7.82;;;2.10;;
52104;SDS011;38103;42.776;23.112;2022-07-15T10:03:02;5.65;;;2.15;;
52104;SDS011;38103;42.776;23.112;2022-07-15T10:05:27;6.85;;;2.00;;
52104;SDS011;38103;42.776;23.112;2022-07-15T10:07:55;5.85;;;1.90;;
52104;SDS011;38103;42.776;23.112;2022-07-15T10:10:23;5.90;;;1.88;;
52104;SDS011;38103;42.776;23.112;2022-07-15T10:15:29;4.95;;;2.08;;
52104;SDS011;38103;42.776;23.112;2022-07-15T10:21:24;5.50;;;2.10;;
52104;SDS011;38103;42.776;23.112;2022-07-15T10:24:44;5.75;;;1.92;;
52104;SDS011;38103;42.776;23.112;2022-07-15T10:30:02;7.72;;;2.17;;
52104;SDS011;38103;42.776;23.112;2022-07-15T10:32:29;7.85;;;1.90;;
52104;SDS011;38103;42.776;23.112;2022-07-15T10:38:19;4.15;;;1.90;;
52104;SDS011;38103;42.776;23.112;2022-07-15T10:43:49;5.65;;;2.00;;
52104;SDS011;38103;42.776;23.112;2022-07-15T10:54:07;6.70;;;2.15;;
52104;SDS011;38103;42.776;23.112;2022-07-15T10:56:40;5.28;;;1.90;;
52104;SDS011;38103;42.776;23.112;2022-07-15T11:01:40;4.63;;;2.00;;
52104;SDS011;38103;42.776;23.112;2022-07-15T11:04:17;5.45;;;1.98;;
52104;SDS011;38103;42.776;23.112;2022-07-15T11:09:55;7.40;;;2.10;;
52104;SDS011;38103;42.776;23.112;2022-07-15T11:12:24;8.00;;;2.17;;
52104;SDS011;38103;42.776;23.112;2022-07-15T11:15:18;6.15;;;2.00;;
52104;SDS011;38103;42.776;23.112;2022-07-15T11:17:49;5.72;;;1.90;;
52104;SDS011;38103;42.776;23.112;2022-07-15T11:20:18;6.70;;;2.00;;
52104;SDS011;38103;42.776;23.112;2022-07-15T11:22:49;4.90;;;1.92;;
52104;SDS011;38103;42.776;23.112;2022-07-15T11:27:58;7.07;;;2.00;;
52104;SDS011;38103;42.776;23.112;2022-07-15T11:30:32;5.68;;;2.13;;
52104;SDS011;38103;42.776;23.112;2022-07-15T11:33:05;5.53;;;2.00;;
52104;SDS011;38103;42.776;23.112;2022-07-15T11:35:42;6.22;;;2.17;;
52104;SDS011;38103;42.776;23.112;2022-07-15T11:38:10;6.18;;;1.90;;
52104;SDS011;38103;42.776;23.112;2022-07-15T11:40:36;6.00;;;1.90;;
52104;SDS011;38103;42.776;23.112;2022-07-15T11:43:26;5.60;;;1.90;;
52104;SDS011;38103;42.776;23.112;2022-07-15T11:46:11;6.15;;;2.00;;
52104;SDS011;38103;42.776;23.112;2022-07-15T11:48:36;7.07;;;2.20;;
52104;SDS011;38103;42.776;23.112;2022-07-15T11:51:03;6.70;;;2.22;;
52104;SDS011;38103;42.776;23.112;2022-07-15T11:53:33;7.10;;;2.20;;
52104;SDS011;38103;42.776;23.112;2022-07-15T11:56:01;6.30;;;2.00;;
52104;SDS011;38103;42.776;23.112;2022-07-15T11:58:34;6.57;;;2.10;;
52104;SDS011;38103;42.776;23.112;2022-07-15T12:01:03;7.40;;;2.10;;
52104;SDS011;38103;42.776;23.112;2022-07-15T12:03:36;5.35;;;2.17;;
52104;SDS011;38103;42.776;23.112;2022-07-15T12:06:11;8.63;;;2.15;;
52104;SDS011;38103;42.776;23.112;2022-07-15T12:08:59;7.50;;;2.33;;
52104;SDS011;38103;42.776;23.112;2022-07-15T12:11:36;9.43;;;2.38;;
52104;SDS011;38103;42.776;23.112;2022-07-15T12:18:58;6.05;;;2.10;;
52104;SDS011;38103;42.776;23.112;2022-07-15T12:21:32;7.22;;;2.10;;
52104;SDS011;38103;42.776;23.112;2022-07-15T12:29:15;6.20;;;2.33;;
52104;SDS011;38103;42.776;23.112;2022-07-15T12:31:52;5.72;;;2.05;;
52104;SDS011;38103;42.776;23.112;2022-07-15T12:34:17;8.13;;;2.20;;
52104;SDS011;38103;42.776;23.112;2022-07-15T12:36:43;6.13;;;2.10;;
52104;SDS011;38103;42.776;23.112;2022-07-15T12:39:12;5.90;;;2.10;;
52104;SDS011;38103;42.776;23.112;2022-07-15T12:41:42;7.70;;;2.55;;
52104;SDS011;38103;42.776;23.112;2022-07-15T12:44:09;6.43;;;2.10;;
52104;SDS011;38103;42.776;23.112;2022-07-15T12:47:17;9.52;;;2.50;;
52104;SDS011;38103;42.776;23.112;2022-07-15T12:49:43;9.15;;;2.30;;
52104;SDS011;38103;42.776;23.112;2022-07-15T12:54:45;5.65;;;2.00;;
52104;SDS011;38103;42.776;23.112;2022-07-15T13:00:04;6.68;;;2.13;;
52104;SDS011;38103;42.776;23.112;2022-07-15T13:05:24;6.03;;;2.42;;
52104;SDS011;38103;42.776;23.112;2022-07-15T13:07:50;6.20;;;2.20;;
52104;SDS011;38103;42.776;23.112;2022-07-15T13:10:15;6.90;;;2.33;;
52104;SDS011;38103;42.776;23.112;2022-07-15T13:12:41;7.03;;;2.10;;
52104;SDS011;38103;42.776;23.112;2022-07-15T13:15:07;7.18;;;2.00;;
52104;SDS011;38103;42.776;23.112;2022-07-15T13:17:33;9.85;;;2.25;;
52104;SDS011;38103;42.776;23.112;2022-07-15T13:19:59;5.88;;;2.10;;
52104;SDS011;38103;42.776;23.112;2022-07-15T13:22:25;8.40;;;2.20;;
52104;SDS011;38103;42.776;23.112;2022-07-15T13:24:50;5.80;;;2.15;;
52104;SDS011;38103;42.776;23.112;2022-07-15T13:27:15;5.88;;;2.20;;
52104;SDS011;38103;42.776;23.112;2022-07-15T13:29:41;5.25;;;2.05;;
52104;SDS011;38103;42.776;23.112;2022-07-15T13:32:06;6.15;;;2.10;;
52104;SDS011;38103;42.776;23.112;2022-07-15T13:34:32;9.35;;;2.28;;
52104;SDS011;38103;42.776;23.112;2022-07-15T13:36:57;5.25;;;2.00;;
52104;SDS011;38103;42.776;23.112;2022-07-15T13:39:22;6.00;;;2.03;;
52104;SDS011;38103;42.776;23.112;2022-07-15T13:41:48;6.32;;;1.98;;
52104;SDS011;38103;42.776;23.112;2022-07-15T13:44:13;8.15;;;2.22;;
52104;SDS011;38103;42.776;23.112;2022-07-15T13:46:39;6.70;;;2.17;;
52104;SDS011;38103;42.776;23.112;2022-07-15T13:49:04;7.38;;;2.28;;
52104;SDS011;38103;42.776;23.112;2022-07-15T13:51:30;5.78;;;2.10;;
52104;SDS011;38103;42.776;23.112;2022-07-15T13:53:56;7.20;;;2.40;;
52104;SDS011;38103;42.776;23.112;2022-07-15T13:56:22;8.68;;;2.05;;
52104;SDS011;38103;42.776;23.112;2022-07-15T13:58:48;6.88;;;2.10;;
52104;SDS011;38103;42.776;23.112;2022-07-15T14:01:14;6.07;;;2.35;;
52104;SDS011;38103;42.776;23.112;2022-07-15T14:03:40;7.68;;;2.20;;
52104;SDS011;38103;42.776;23.112;2022-07-15T14:06:05;5.95;;;2.13;;
52104;SDS011;38103;42.776;23.112;2022-07-15T14:08:31;6.68;;;2.20;;
52104;SDS011;38103;42.776;23.112;2022-07-15T14:10:56;7.13;;;2.20;;
52104;SDS011;38103;42.776;23.112;2022-07-15T14:13:22;5.22;;;2.00;;
52104;SDS011;38103;42.776;23.112;2022-07-15T14:15:47;8.65;;;2.20;;
52104;SDS011;38103;42.776;23.112;2022-07-15T14:18:13;6.78;;;2.35;;
52104;SDS011;38103;42.776;23.112;2022-07-15T14:20:38;5.80;;;2.03;;
52104;SDS011;38103;42.776;23.112;2022-07-15T14:23:06;6.40;;;2.00;;
52104;SDS011;38103;42.776;23.112;2022-07-15T14:25:32;6.28;;;2.30;;
52104;SDS011;38103;42.776;23.112;2022-07-15T14:27:57;7.85;;;2.20;;
52104;SDS011;38103;42.776;23.112;2022-07-15T14:30:23;7.85;;;2.20;;
52104;SDS011;38103;42.776;23.112;2022-07-15T14:32:48;5.82;;;2.13;;
52104;SDS011;38103;42.776;23.112;2022-07-15T14:35:14;7.30;;;2.25;;
52104;SDS011;38103;42.776;23.112;2022-07-15T14:37:39;8.02;;;2.15;;
52104;SDS011;38103;42.776;23.112;2022-07-15T14:40:05;7.00;;;2.10;;
52104;SDS011;38103;42.776;23.112;2022-07-15T14:42:31;6.20;;;2.20;;
52104;SDS011;38103;42.776;23.112;2022-07-15T14:44:57;6.22;;;2.00;;
52104;SDS011;38103;42.776;23.112;2022-07-15T14:47:23;8.68;;;2.20;;
52104;SDS011;38103;42.776;23.112;2022-07-15T14:49:48;8.40;;;3.30;;
52104;SDS011;38103;42.776;23.112;2022-07-15T14:52:14;7.03;;;2.00;;
52104;SDS011;38103;42.776;23.112;2022-07-15T14:54:40;9.35;;;2.35;;
52104;SDS011;38103;42.776;23.112;2022-07-15T14:57:05;6.63;;;2.17;;
52104;SDS011;38103;42.776;23.112;2022-07-15T14:59:31;6.63;;;2.40;;
52104;SDS011;38103;42.776;23.112;2022-07-15T15:01:56;6.18;;;2.13;;
52104;SDS011;38103;42.776;23.112;2022-07-15T15:04:22;5.70;;;2.28;;
52104;SDS011;38103;42.776;23.112;2022-07-15T15:06:48;7.13;;;2.10;;
52104;SDS011;38103;42.776;23.112;2022-07-15T15:09:13;8.68;;;2.30;;
52104;SDS011;38103;42.776;23.112;2022-07-15T15:11:38;6.38;;;2.20;;
52104;SDS011;38103;42.776;23.112;2022-07-15T15:14:04;8.10;;;2.28;;
52104;SDS011;38103;42.776;23.112;2022-07-15T15:16:30;9.02;;;2.00;;
52104;SDS011;38103;42.776;23.112;2022-07-15T15:18:55;9.18;;;2.28;;
52104;SDS011;38103;42.776;23.112;2022-07-15T15:21:21;5.38;;;2.13;;
52104;SDS011;38103;42.776;23.112;2022-07-15T15:23:47;4.78;;;2.00;;
52104;SDS011;38103;42.776;23.112;2022-07-15T15:26:12;8.85;;;2.10;;
52104;SDS011;38103;42.776;23.112;2022-07-15T15:28:50;7.05;;;2.10;;
52104;SDS011;38103;42.776;23.112;2022-07-15T15:31:19;5.47;;;2.05;;
52104;SDS011;38103;42.776;23.112;2022-07-15T15:33:44;6.88;;;1.98;;
52104;SDS011;38103;42.776;23.112;2022-07-15T15:36:10;7.20;;;2.25;;
52104;SDS011;38103;42.776;23.112;2022-07-15T15:38:36;7.20;;;2.00;;
52104;SDS011;38103;42.776;23.112;2022-07-15T15:41:01;7.45;;;2.35;;